sensor_id;sensor_type;location;lat;lon;timestamp;P1;durP1;ratioP1;P2;durP2;ratioP2
64210;SDS011;50528;48.514;14.394;2023-04-03T00:00:04;8.40;;;7.00;;
64210;SDS011;50528;48.514;14.394;2023-04-03T00:00:58;7.20;;;6.40;;
64210;SDS011;50528;48.514;14.394;2023-04-03T00:01:31;10.00;;;6.00;;
64210;SDS011;50528;48.514;14.394;2023-04-03T00:02:05;7.60;;;6.50;;
64210;SDS011;50528;48.514;14.394;2023-04-03T00:02:38;7.60;;;6.40;;
64210;SDS011;50528;48.514;14.394;2023-04-03T00:03:13;7.50;;;6.50;;
64210;SDS011;50528;48.514;14.394;2023-04-03T00:03:47;8.10;;;6.60;;
64210;SDS011;50528;48.514;14.394;2023-04-03T00:04:21;7.60;;;6.40;;
64210;SDS011;50528;48.514;14.394;2023-04-03T00:04:54;8.10;;;6.60;;
64210;SDS011;50528;48.514;14.394;2023-04-03T00:05:28;8.70;;;6.50;;
64210;SDS011;50528;48.514;14.394;2023-04-03T00:06:01;8.50;;;6.70;;
64210;SDS011;50528;48.514;14.394;2023-04-03T00:06:36;7.80;;;6.60;;
64210;SDS011;50528;48.514;14.394;2023-04-03T00:07:09;9.00;;;6.80;;
64210;SDS011;50528;48.514;14.394;2023-04-03T00:07:43;9.60;;;6.70;;
64210;SDS011;50528;48.514;14.394;2023-04-03T00:08:16;8.00;;;6.60;;
64210;SDS011;50528;48.514;14.394;2023-04-03T00:08:50;8.90;;;6.60;;
64210;SDS011;50528;48.514;14.394;2023-04-03T00:09:23;7.80;;;6.50;;
64210;SDS011;50528;48.514;14.394;2023-04-03T00:09:57;9.20;;;7.00;;
64210;SDS011;50528;48.514;14.394;2023-04-03T00:10:30;8.10;;;6.60;;
64210;SDS011;50528;48.514;14.394;2023-04-03T00:11:04;8.10;;;6.30;;
64210;SDS011;50528;48.514;14.394;2023-04-03T00:11:38;7.40;;;6.60;;
64210;SDS011;50528;48.514;14.394;2023-04-03T00:12:12;7.30;;;6.40;;
64210;SDS011;50528;48.514;14.394;2023-04-03T00:12:45;7.10;;;6.30;;
64210;SDS011;50528;48.514;14.394;2023-04-03T00:13:19;8.10;;;6.70;;
64210;SDS011;50528;48.514;14.394;2023-04-03T00:13:56;8.50;;;6.40;;
64210;SDS011;50528;48.514;14.394;2023-04-03T00:14:33;7.10;;;6.20;;
64210;SDS011;50528;48.514;14.394;2023-04-03T00:15:07;8.60;;;6.30;;
64210;SDS011;50528;48.514;14.394;2023-04-03T00:15:41;8.40;;;6.50;;
64210;SDS011;50528;48.514;14.394;2023-04-03T00:16:15;7.70;;;6.40;;
64210;SDS011;50528;48.514;14.394;2023-04-03T00:16:49;7.40;;;6.20;;
64210;SDS011;50528;48.514;14.394;2023-04-03T00:17:22;7.20;;;6.50;;
64210;SDS011;50528;48.514;14.394;2023-04-03T00:17:56;7.30;;;6.50;;
64210;SDS011;50528;48.514;14.394;2023-04-03T00:18:30;7.70;;;6.50;;
64210;SDS011;50528;48.514;14.394;2023-04-03T00:19:04;8.30;;;6.80;;
64210;SDS011;50528;48.514;14.394;2023-04-03T00:19:38;8.00;;;6.70;;
64210;SDS011;50528;48.514;14.394;2023-04-03T00:20:12;8.10;;;6.70;;
64210;SDS011;50528;48.514;14.394;2023-04-03T00:20:45;8.60;;;6.60;;
64210;SDS011;50528;48.514;14.394;2023-04-03T00:21:19;7.20;;;6.10;;
64210;SDS011;50528;48.514;14.394;2023-04-03T00:21:52;8.70;;;6.60;;
64210;SDS011;50528;48.514;14.394;2023-04-03T00:22:26;6.90;;;6.20;;
64210;SDS011;50528;48.514;14.394;2023-04-03T00:23:01;6.90;;;5.90;;
64210;SDS011;50528;48.514;14.394;2023-04-03T00:23:35;6.80;;;5.80;;
64210;SDS011;50528;48.514;14.394;2023-04-03T00:24:08;7.50;;;6.00;;
64210;SDS011;50528;48.514;14.394;2023-04-03T00:24:42;8.50;;;6.00;;
64210;SDS011;50528;48.514;14.394;2023-04-03T00:25:15;6.90;;;6.00;;
64210;SDS011;50528;48.514;14.394;2023-04-03T00:25:51;8.30;;;6.30;;
64210;SDS011;50528;48.514;14.394;2023-04-03T00:26:25;6.90;;;5.70;;
64210;SDS011;50528;48.514;14.394;2023-04-03T00:26:58;7.30;;;5.50;;
64210;SDS011;50528;48.514;14.394;2023-04-03T00:27:32;7.80;;;6.00;;
64210;SDS011;50528;48.514;14.394;2023-04-03T00:28:06;7.20;;;5.50;;
64210;SDS011;50528;48.514;14.394;2023-04-03T00:28:39;8.20;;;5.60;;
64210;SDS011;50528;48.514;14.394;2023-04-03T00:29:13;7.00;;;6.10;;
64210;SDS011;50528;48.514;14.394;2023-04-03T00:29:46;6.60;;;5.90;;
64210;SDS011;50528;48.514;14.394;2023-04-03T00:30:21;6.90;;;5.70;;
64210;SDS011;50528;48.514;14.394;2023-04-03T00:30:55;8.00;;;6.00;;
64210;SDS011;50528;48.514;14.394;2023-04-03T00:31:28;7.40;;;6.00;;
64210;SDS011;50528;48.514;14.394;2023-04-03T00:32:02;6.80;;;6.00;;
64210;SDS011;50528;48.514;14.394;2023-04-03T00:32:36;7.80;;;5.80;;
64210;SDS011;50528;48.514;14.394;2023-04-03T00:33:11;6.90;;;5.90;;
64210;SDS011;50528;48.514;14.394;2023-04-03T00:33:46;8.10;;;5.90;;
64210;SDS011;50528;48.514;14.394;2023-04-03T00:34:19;7.90;;;5.70;;
64210;SDS011;50528;48.514;14.394;2023-04-03T00:34:53;7.20;;;5.70;;
64210;SDS011;50528;48.514;14.394;2023-04-03T00:35:26;6.90;;;5.90;;
64210;SDS011;50528;48.514;14.394;2023-04-03T00:36:05;7.20;;;6.10;;
64210;SDS011;50528;48.514;14.394;2023-04-03T00:36:42;7.00;;;5.80;;
64210;SDS011;50528;48.514;14.394;2023-04-03T00:37:16;7.70;;;5.90;;
64210;SDS011;50528;48.514;14.394;2023-04-03T00:37:51;6.40;;;5.30;;
64210;SDS011;50528;48.514;14.394;2023-04-03T00:38:25;7.00;;;5.70;;
64210;SDS011;50528;48.514;14.394;2023-04-03T00:38:59;6.70;;;5.60;;
64210;SDS011;50528;48.514;14.394;2023-04-03T00:39:33;7.00;;;5.60;;
64210;SDS011;50528;48.514;14.394;2023-04-03T00:40:07;7.20;;;5.80;;
64210;SDS011;50528;48.514;14.394;2023-04-03T00:40:43;6.30;;;5.40;;
64210;SDS011;50528;48.514;14.394;2023-04-03T00:41:20;7.00;;;5.80;;
64210;SDS011;50528;48.514;14.394;2023-04-03T00:41:54;7.00;;;5.60;;
64210;SDS011;50528;48.514;14.394;2023-04-03T00:42:27;7.50;;;5.80;;
64210;SDS011;50528;48.514;14.394;2023-04-03T00:43:01;6.90;;;5.80;;
64210;SDS011;50528;48.514;14.394;2023-04-03T00:43:34;5.70;;;4.30;;
64210;SDS011;50528;48.514;14.394;2023-04-03T00:45:40;9.00;;;5.40;;
64210;SDS011;50528;48.514;14.394;2023-04-03T00:46:15;6.50;;;5.30;;
64210;SDS011;50528;48.514;14.394;2023-04-03T00:46:48;6.80;;;5.40;;
64210;SDS011;50528;48.514;14.394;2023-04-03T00:47:22;6.90;;;5.60;;
64210;SDS011;50528;48.514;14.394;2023-04-03T00:47:57;6.20;;;5.20;;
64210;SDS011;50528;48.514;14.394;2023-04-03T00:48:39;5.80;;;5.00;;
64210;SDS011;50528;48.514;14.394;2023-04-03T00:49:15;6.20;;;4.90;;
64210;SDS011;50528;48.514;14.394;2023-04-03T00:49:49;6.40;;;4.90;;
64210;SDS011;50528;48.514;14.394;2023-04-03T00:50:23;6.00;;;5.10;;
64210;SDS011;50528;48.514;14.394;2023-04-03T00:50:57;6.00;;;5.20;;
64210;SDS011;50528;48.514;14.394;2023-04-03T00:51:32;6.60;;;5.20;;
64210;SDS011;50528;48.514;14.394;2023-04-03T00:52:07;7.40;;;5.30;;
64210;SDS011;50528;48.514;14.394;2023-04-03T00:52:45;5.90;;;4.90;;
64210;SDS011;50528;48.514;14.394;2023-04-03T00:53:26;7.70;;;5.70;;
64210;SDS011;50528;48.514;14.394;2023-04-03T00:54:04;6.60;;;5.40;;
64210;SDS011;50528;48.514;14.394;2023-04-03T00:54:40;7.80;;;5.20;;
64210;SDS011;50528;48.514;14.394;2023-04-03T00:55:14;6.70;;;5.30;;
64210;SDS011;50528;48.514;14.394;2023-04-03T00:55:49;6.40;;;5.40;;
64210;SDS011;50528;48.514;14.394;2023-04-03T00:56:26;6.80;;;5.30;;
64210;SDS011;50528;48.514;14.394;2023-04-03T00:57:03;6.10;;;5.10;;
64210;SDS011;50528;48.514;14.394;2023-04-03T00:57:38;6.40;;;5.50;;
64210;SDS011;50528;48.514;14.394;2023-04-03T00:58:12;5.90;;;4.70;;
64210;SDS011;50528;48.514;14.394;2023-04-03T00:58:49;6.10;;;4.70;;
64210;SDS011;50528;48.514;14.394;2023-04-03T00:59:27;6.40;;;5.10;;
64210;SDS011;50528;48.514;14.394;2023-04-03T01:00:06;5.80;;;4.70;;
64210;SDS011;50528;48.514;14.394;2023-04-03T01:00:43;6.00;;;4.90;;
64210;SDS011;50528;48.514;14.394;2023-04-03T01:01:23;6.40;;;5.30;;
64210;SDS011;50528;48.514;14.394;2023-04-03T01:01:59;6.40;;;4.90;;
64210;SDS011;50528;48.514;14.394;2023-04-03T01:02:33;5.90;;;5.00;;
64210;SDS011;50528;48.514;14.394;2023-04-03T01:03:07;6.30;;;5.20;;
64210;SDS011;50528;48.514;14.394;2023-04-03T01:03:45;6.30;;;5.10;;
64210;SDS011;50528;48.514;14.394;2023-04-03T01:04:29;6.50;;;5.20;;
64210;SDS011;50528;48.514;14.394;2023-04-03T01:05:04;6.40;;;4.60;;
64210;SDS011;50528;48.514;14.394;2023-04-03T01:05:38;6.80;;;5.30;;
64210;SDS011;50528;48.514;14.394;2023-04-03T01:06:13;6.20;;;5.10;;
64210;SDS011;50528;48.514;14.394;2023-04-03T01:06:50;7.70;;;5.40;;
64210;SDS011;50528;48.514;14.394;2023-04-03T01:07:29;6.80;;;5.30;;
64210;SDS011;50528;48.514;14.394;2023-04-03T01:08:03;8.40;;;5.20;;
64210;SDS011;50528;48.514;14.394;2023-04-03T01:08:37;7.20;;;5.40;;
64210;SDS011;50528;48.514;14.394;2023-04-03T01:09:11;7.00;;;5.90;;
64210;SDS011;50528;48.514;14.394;2023-04-03T01:09:45;6.80;;;5.60;;
64210;SDS011;50528;48.514;14.394;2023-04-03T01:10:21;7.60;;;5.30;;
64210;SDS011;50528;48.514;14.394;2023-04-03T01:10:55;6.50;;;5.40;;
64210;SDS011;50528;48.514;14.394;2023-04-03T01:11:29;6.90;;;5.30;;
64210;SDS011;50528;48.514;14.394;2023-04-03T01:12:13;5.90;;;5.20;;
64210;SDS011;50528;48.514;14.394;2023-04-03T01:12:50;7.10;;;5.00;;
64210;SDS011;50528;48.514;14.394;2023-04-03T01:13:25;7.20;;;5.40;;
64210;SDS011;50528;48.514;14.394;2023-04-03T01:14:01;6.30;;;5.30;;
64210;SDS011;50528;48.514;14.394;2023-04-03T01:14:35;6.70;;;5.50;;
64210;SDS011;50528;48.514;14.394;2023-04-03T01:15:11;6.40;;;5.50;;
64210;SDS011;50528;48.514;14.394;2023-04-03T01:15:48;5.70;;;4.80;;
64210;SDS011;50528;48.514;14.394;2023-04-03T01:16:21;6.70;;;5.50;;
64210;SDS011;50528;48.514;14.394;2023-04-03T01:16:55;6.80;;;5.60;;
64210;SDS011;50528;48.514;14.394;2023-04-03T01:18:02;7.60;;;5.90;;
64210;SDS011;50528;48.514;14.394;2023-04-03T01:18:38;8.50;;;5.40;;
64210;SDS011;50528;48.514;14.394;2023-04-03T01:19:14;6.60;;;5.10;;
64210;SDS011;50528;48.514;14.394;2023-04-03T01:19:50;7.00;;;5.50;;
64210;SDS011;50528;48.514;14.394;2023-04-03T01:22:32;7.40;;;5.40;;
64210;SDS011;50528;48.514;14.394;2023-04-03T01:23:20;8.60;;;5.20;;
64210;SDS011;50528;48.514;14.394;2023-04-03T01:24:54;7.70;;;5.30;;
64210;SDS011;50528;48.514;14.394;2023-04-03T01:25:28;6.70;;;5.40;;
64210;SDS011;50528;48.514;14.394;2023-04-03T01:26:02;6.60;;;5.60;;
64210;SDS011;50528;48.514;14.394;2023-04-03T01:26:36;6.30;;;5.50;;
64210;SDS011;50528;48.514;14.394;2023-04-03T01:27:10;7.00;;;5.40;;
64210;SDS011;50528;48.514;14.394;2023-04-03T01:27:45;7.40;;;5.60;;
64210;SDS011;50528;48.514;14.394;2023-04-03T01:28:58;7.80;;;6.30;;
64210;SDS011;50528;48.514;14.394;2023-04-03T01:29:32;8.30;;;6.00;;
64210;SDS011;50528;48.514;14.394;2023-04-03T01:30:07;7.20;;;5.30;;
64210;SDS011;50528;48.514;14.394;2023-04-03T01:31:25;7.40;;;5.40;;
64210;SDS011;50528;48.514;14.394;2023-04-03T01:32:21;6.50;;;5.40;;
64210;SDS011;50528;48.514;14.394;2023-04-03T01:32:55;7.10;;;5.50;;
64210;SDS011;50528;48.514;14.394;2023-04-03T01:33:29;8.40;;;6.10;;
64210;SDS011;50528;48.514;14.394;2023-04-03T01:34:03;7.80;;;5.90;;
64210;SDS011;50528;48.514;14.394;2023-04-03T01:34:36;6.40;;;5.70;;
64210;SDS011;50528;48.514;14.394;2023-04-03T01:35:11;7.40;;;6.00;;
64210;SDS011;50528;48.514;14.394;2023-04-03T01:35:45;8.00;;;6.00;;
64210;SDS011;50528;48.514;14.394;2023-04-03T01:36:22;7.50;;;6.30;;
64210;SDS011;50528;48.514;14.394;2023-04-03T01:37:00;7.60;;;6.20;;
64210;SDS011;50528;48.514;14.394;2023-04-03T01:37:33;7.40;;;5.60;;
64210;SDS011;50528;48.514;14.394;2023-04-03T01:38:07;7.50;;;6.00;;
64210;SDS011;50528;48.514;14.394;2023-04-03T01:38:40;7.40;;;5.90;;
64210;SDS011;50528;48.514;14.394;2023-04-03T01:39:14;6.90;;;6.00;;
64210;SDS011;50528;48.514;14.394;2023-04-03T01:39:48;7.90;;;5.50;;
64210;SDS011;50528;48.514;14.394;2023-04-03T01:40:22;8.20;;;6.20;;
64210;SDS011;50528;48.514;14.394;2023-04-03T01:40:56;6.90;;;5.70;;
64210;SDS011;50528;48.514;14.394;2023-04-03T01:41:29;7.10;;;5.50;;
64210;SDS011;50528;48.514;14.394;2023-04-03T01:42:09;6.80;;;5.80;;
64210;SDS011;50528;48.514;14.394;2023-04-03T01:42:46;7.30;;;6.30;;
64210;SDS011;50528;48.514;14.394;2023-04-03T01:43:19;8.00;;;6.20;;
64210;SDS011;50528;48.514;14.394;2023-04-03T01:43:53;7.30;;;5.80;;
64210;SDS011;50528;48.514;14.394;2023-04-03T01:44:26;7.30;;;5.90;;
64210;SDS011;50528;48.514;14.394;2023-04-03T01:45:00;7.50;;;6.10;;
64210;SDS011;50528;48.514;14.394;2023-04-03T01:45:33;7.10;;;6.20;;
64210;SDS011;50528;48.514;14.394;2023-04-03T01:46:07;8.20;;;6.60;;
64210;SDS011;50528;48.514;14.394;2023-04-03T01:46:40;8.40;;;6.20;;
64210;SDS011;50528;48.514;14.394;2023-04-03T01:47:15;7.30;;;5.90;;
64210;SDS011;50528;48.514;14.394;2023-04-03T01:47:48;8.80;;;6.20;;
64210;SDS011;50528;48.514;14.394;2023-04-03T01:48:22;8.30;;;6.30;;
64210;SDS011;50528;48.514;14.394;2023-04-03T01:48:55;8.50;;;6.40;;
64210;SDS011;50528;48.514;14.394;2023-04-03T01:51:17;7.40;;;5.80;;
64210;SDS011;50528;48.514;14.394;2023-04-03T01:51:50;9.00;;;5.50;;
64210;SDS011;50528;48.514;14.394;2023-04-03T01:52:24;7.70;;;6.10;;
64210;SDS011;50528;48.514;14.394;2023-04-03T01:52:57;7.30;;;6.20;;
64210;SDS011;50528;48.514;14.394;2023-04-03T01:53:31;8.70;;;6.00;;
64210;SDS011;50528;48.514;14.394;2023-04-03T01:54:05;8.00;;;6.30;;
64210;SDS011;50528;48.514;14.394;2023-04-03T01:54:38;7.80;;;6.10;;
64210;SDS011;50528;48.514;14.394;2023-04-03T01:55:12;8.50;;;6.40;;
64210;SDS011;50528;48.514;14.394;2023-04-03T01:55:48;8.00;;;6.00;;
64210;SDS011;50528;48.514;14.394;2023-04-03T01:56:21;8.90;;;6.40;;
64210;SDS011;50528;48.514;14.394;2023-04-03T01:56:55;7.80;;;6.30;;
64210;SDS011;50528;48.514;14.394;2023-04-03T01:57:29;8.20;;;6.50;;
64210;SDS011;50528;48.514;14.394;2023-04-03T01:58:04;9.20;;;6.60;;
64210;SDS011;50528;48.514;14.394;2023-04-03T01:58:37;7.90;;;5.80;;
64210;SDS011;50528;48.514;14.394;2023-04-03T01:59:11;8.00;;;6.30;;
64210;SDS011;50528;48.514;14.394;2023-04-03T01:59:45;9.20;;;6.20;;
64210;SDS011;50528;48.514;14.394;2023-04-03T02:00:19;8.70;;;6.80;;
64210;SDS011;50528;48.514;14.394;2023-04-03T02:00:52;10.00;;;6.60;;
64210;SDS011;50528;48.514;14.394;2023-04-03T02:01:26;7.60;;;6.20;;
64210;SDS011;50528;48.514;14.394;2023-04-03T02:02:00;7.60;;;6.10;;
64210;SDS011;50528;48.514;14.394;2023-04-03T02:02:33;8.70;;;6.60;;
64210;SDS011;50528;48.514;14.394;2023-04-03T02:03:07;9.20;;;6.60;;
64210;SDS011;50528;48.514;14.394;2023-04-03T02:03:41;6.70;;;6.00;;
64210;SDS011;50528;48.514;14.394;2023-04-03T02:04:15;7.40;;;6.20;;
64210;SDS011;50528;48.514;14.394;2023-04-03T02:04:48;8.70;;;6.30;;
64210;SDS011;50528;48.514;14.394;2023-04-03T02:05:22;7.90;;;6.40;;
64210;SDS011;50528;48.514;14.394;2023-04-03T02:05:56;7.90;;;6.80;;
64210;SDS011;50528;48.514;14.394;2023-04-03T02:06:29;7.80;;;6.30;;
64210;SDS011;50528;48.514;14.394;2023-04-03T02:07:03;7.60;;;6.30;;
64210;SDS011;50528;48.514;14.394;2023-04-03T02:07:37;7.50;;;6.30;;
64210;SDS011;50528;48.514;14.394;2023-04-03T02:08:10;7.90;;;6.30;;
64210;SDS011;50528;48.514;14.394;2023-04-03T02:08:44;6.70;;;5.80;;
64210;SDS011;50528;48.514;14.394;2023-04-03T02:09:18;8.90;;;6.20;;
64210;SDS011;50528;48.514;14.394;2023-04-03T02:09:52;9.20;;;6.30;;
64210;SDS011;50528;48.514;14.394;2023-04-03T02:10:25;9.20;;;6.30;;
64210;SDS011;50528;48.514;14.394;2023-04-03T02:10:59;8.30;;;6.30;;
64210;SDS011;50528;48.514;14.394;2023-04-03T02:11:32;8.00;;;5.70;;
64210;SDS011;50528;48.514;14.394;2023-04-03T02:12:06;8.30;;;6.10;;
64210;SDS011;50528;48.514;14.394;2023-04-03T02:12:39;7.40;;;5.80;;
64210;SDS011;50528;48.514;14.394;2023-04-03T02:13:13;7.20;;;6.20;;
64210;SDS011;50528;48.514;14.394;2023-04-03T02:13:47;8.00;;;5.50;;
64210;SDS011;50528;48.514;14.394;2023-04-03T02:14:20;8.30;;;6.30;;
64210;SDS011;50528;48.514;14.394;2023-04-03T02:14:56;8.60;;;6.10;;
64210;SDS011;50528;48.514;14.394;2023-04-03T02:15:31;8.60;;;6.20;;
64210;SDS011;50528;48.514;14.394;2023-04-03T02:16:10;7.60;;;6.10;;
64210;SDS011;50528;48.514;14.394;2023-04-03T02:16:47;8.40;;;6.00;;
64210;SDS011;50528;48.514;14.394;2023-04-03T02:17:21;9.60;;;5.50;;
64210;SDS011;50528;48.514;14.394;2023-04-03T02:17:54;8.10;;;6.00;;
64210;SDS011;50528;48.514;14.394;2023-04-03T02:18:28;7.70;;;5.90;;
64210;SDS011;50528;48.514;14.394;2023-04-03T02:19:02;7.50;;;5.60;;
64210;SDS011;50528;48.514;14.394;2023-04-03T02:19:35;8.20;;;6.20;;
64210;SDS011;50528;48.514;14.394;2023-04-03T02:20:09;8.00;;;6.10;;
64210;SDS011;50528;48.514;14.394;2023-04-03T02:20:46;9.20;;;6.20;;
64210;SDS011;50528;48.514;14.394;2023-04-03T02:21:19;8.70;;;6.00;;
64210;SDS011;50528;48.514;14.394;2023-04-03T02:21:53;9.10;;;6.10;;
64210;SDS011;50528;48.514;14.394;2023-04-03T02:22:26;7.70;;;6.30;;
64210;SDS011;50528;48.514;14.394;2023-04-03T02:23:00;8.60;;;5.90;;
64210;SDS011;50528;48.514;14.394;2023-04-03T02:23:34;8.10;;;6.30;;
64210;SDS011;50528;48.514;14.394;2023-04-03T02:24:10;7.80;;;6.00;;
64210;SDS011;50528;48.514;14.394;2023-04-03T02:24:43;7.80;;;6.30;;
64210;SDS011;50528;48.514;14.394;2023-04-03T02:25:17;8.10;;;6.00;;
64210;SDS011;50528;48.514;14.394;2023-04-03T02:25:51;9.30;;;6.20;;
64210;SDS011;50528;48.514;14.394;2023-04-03T02:26:24;7.20;;;5.90;;
64210;SDS011;50528;48.514;14.394;2023-04-03T02:26:59;6.80;;;5.90;;
64210;SDS011;50528;48.514;14.394;2023-04-03T02:27:32;8.80;;;6.10;;
64210;SDS011;50528;48.514;14.394;2023-04-03T02:28:06;7.30;;;6.00;;
64210;SDS011;50528;48.514;14.394;2023-04-03T02:28:39;7.80;;;6.30;;
64210;SDS011;50528;48.514;14.394;2023-04-03T02:29:14;8.90;;;6.50;;
64210;SDS011;50528;48.514;14.394;2023-04-03T02:29:48;8.80;;;6.00;;
64210;SDS011;50528;48.514;14.394;2023-04-03T02:30:21;8.20;;;6.00;;
64210;SDS011;50528;48.514;14.394;2023-04-03T02:30:55;8.20;;;5.90;;
64210;SDS011;50528;48.514;14.394;2023-04-03T02:31:29;8.90;;;6.50;;
64210;SDS011;50528;48.514;14.394;2023-04-03T02:32:04;8.20;;;5.50;;
64210;SDS011;50528;48.514;14.394;2023-04-03T02:32:38;8.10;;;6.20;;
64210;SDS011;50528;48.514;14.394;2023-04-03T02:33:13;7.00;;;5.70;;
64210;SDS011;50528;48.514;14.394;2023-04-03T02:33:46;8.40;;;6.10;;
64210;SDS011;50528;48.514;14.394;2023-04-03T02:34:20;8.30;;;6.00;;
64210;SDS011;50528;48.514;14.394;2023-04-03T02:34:56;8.20;;;6.10;;
64210;SDS011;50528;48.514;14.394;2023-04-03T02:35:29;6.80;;;5.80;;
64210;SDS011;50528;48.514;14.394;2023-04-03T02:36:04;8.50;;;6.00;;
64210;SDS011;50528;48.514;14.394;2023-04-03T02:36:39;8.90;;;6.00;;
64210;SDS011;50528;48.514;14.394;2023-04-03T02:37:16;7.70;;;5.80;;
64210;SDS011;50528;48.514;14.394;2023-04-03T02:37:50;7.10;;;5.90;;
64210;SDS011;50528;48.514;14.394;2023-04-03T02:38:24;7.00;;;5.50;;
64210;SDS011;50528;48.514;14.394;2023-04-03T02:38:58;7.50;;;5.40;;
64210;SDS011;50528;48.514;14.394;2023-04-03T02:39:32;7.40;;;5.90;;
64210;SDS011;50528;48.514;14.394;2023-04-03T02:40:05;8.00;;;6.40;;
64210;SDS011;50528;48.514;14.394;2023-04-03T02:40:41;8.50;;;6.20;;
64210;SDS011;50528;48.514;14.394;2023-04-03T02:41:15;8.70;;;6.20;;
64210;SDS011;50528;48.514;14.394;2023-04-03T02:41:50;7.50;;;6.20;;
64210;SDS011;50528;48.514;14.394;2023-04-03T02:42:26;9.00;;;6.00;;
64210;SDS011;50528;48.514;14.394;2023-04-03T02:43:00;6.90;;;5.60;;
64210;SDS011;50528;48.514;14.394;2023-04-03T02:43:34;9.10;;;6.70;;
64210;SDS011;50528;48.514;14.394;2023-04-03T02:44:09;7.80;;;6.30;;
64210;SDS011;50528;48.514;14.394;2023-04-03T02:44:44;7.50;;;6.40;;
64210;SDS011;50528;48.514;14.394;2023-04-03T02:45:17;10.60;;;6.60;;
64210;SDS011;50528;48.514;14.394;2023-04-03T02:45:51;9.40;;;6.60;;
64210;SDS011;50528;48.514;14.394;2023-04-03T02:46:25;8.60;;;6.40;;
64210;SDS011;50528;48.514;14.394;2023-04-03T02:46:58;8.40;;;6.20;;
64210;SDS011;50528;48.514;14.394;2023-04-03T02:47:32;8.30;;;6.00;;
64210;SDS011;50528;48.514;14.394;2023-04-03T02:48:05;7.90;;;6.30;;
64210;SDS011;50528;48.514;14.394;2023-04-03T02:48:40;7.50;;;5.90;;
64210;SDS011;50528;48.514;14.394;2023-04-03T02:49:15;7.30;;;5.80;;
64210;SDS011;50528;48.514;14.394;2023-04-03T02:49:48;7.50;;;5.80;;
64210;SDS011;50528;48.514;14.394;2023-04-03T02:50:22;7.20;;;5.70;;
64210;SDS011;50528;48.514;14.394;2023-04-03T02:50:56;8.60;;;6.00;;
64210;SDS011;50528;48.514;14.394;2023-04-03T02:51:29;8.20;;;6.60;;
64210;SDS011;50528;48.514;14.394;2023-04-03T02:52:03;8.50;;;6.70;;
64210;SDS011;50528;48.514;14.394;2023-04-03T02:52:37;8.30;;;6.10;;
64210;SDS011;50528;48.514;14.394;2023-04-03T02:53:13;7.60;;;6.00;;
64210;SDS011;50528;48.514;14.394;2023-04-03T02:53:48;8.20;;;6.60;;
64210;SDS011;50528;48.514;14.394;2023-04-03T02:54:25;9.20;;;6.90;;
64210;SDS011;50528;48.514;14.394;2023-04-03T02:55:02;8.00;;;6.60;;
64210;SDS011;50528;48.514;14.394;2023-04-03T02:55:36;9.20;;;6.70;;
64210;SDS011;50528;48.514;14.394;2023-04-03T02:56:10;10.70;;;6.90;;
64210;SDS011;50528;48.514;14.394;2023-04-03T02:56:45;10.10;;;6.40;;
64210;SDS011;50528;48.514;14.394;2023-04-03T02:57:18;9.10;;;6.60;;
64210;SDS011;50528;48.514;14.394;2023-04-03T02:57:53;8.80;;;6.40;;
64210;SDS011;50528;48.514;14.394;2023-04-03T02:58:26;7.50;;;6.50;;
64210;SDS011;50528;48.514;14.394;2023-04-03T02:59:00;6.90;;;6.10;;
64210;SDS011;50528;48.514;14.394;2023-04-03T02:59:35;8.80;;;7.00;;
64210;SDS011;50528;48.514;14.394;2023-04-03T03:00:16;8.00;;;6.70;;
64210;SDS011;50528;48.514;14.394;2023-04-03T03:00:50;8.40;;;6.50;;
64210;SDS011;50528;48.514;14.394;2023-04-03T03:01:23;9.00;;;6.70;;
64210;SDS011;50528;48.514;14.394;2023-04-03T03:01:57;8.50;;;6.90;;
64210;SDS011;50528;48.514;14.394;2023-04-03T03:02:31;7.70;;;6.70;;
64210;SDS011;50528;48.514;14.394;2023-04-03T03:03:05;8.80;;;6.50;;
64210;SDS011;50528;48.514;14.394;2023-04-03T03:03:39;8.70;;;6.70;;
64210;SDS011;50528;48.514;14.394;2023-04-03T03:04:13;9.70;;;7.00;;
64210;SDS011;50528;48.514;14.394;2023-04-03T03:04:46;7.40;;;6.40;;
64210;SDS011;50528;48.514;14.394;2023-04-03T03:05:19;8.90;;;6.70;;
64210;SDS011;50528;48.514;14.394;2023-04-03T03:06:38;9.60;;;6.50;;
64210;SDS011;50528;48.514;14.394;2023-04-03T03:07:15;9.00;;;6.50;;
64210;SDS011;50528;48.514;14.394;2023-04-03T03:07:48;8.90;;;6.70;;
64210;SDS011;50528;48.514;14.394;2023-04-03T03:08:22;8.50;;;6.40;;
64210;SDS011;50528;48.514;14.394;2023-04-03T03:08:55;9.00;;;6.60;;
64210;SDS011;50528;48.514;14.394;2023-04-03T03:09:29;8.50;;;6.40;;
64210;SDS011;50528;48.514;14.394;2023-04-03T03:10:04;9.00;;;6.00;;
64210;SDS011;50528;48.514;14.394;2023-04-03T03:10:37;7.90;;;6.50;;
64210;SDS011;50528;48.514;14.394;2023-04-03T03:11:12;8.90;;;6.80;;
64210;SDS011;50528;48.514;14.394;2023-04-03T03:11:46;9.00;;;7.00;;
64210;SDS011;50528;48.514;14.394;2023-04-03T03:12:19;8.90;;;6.60;;
64210;SDS011;50528;48.514;14.394;2023-04-03T03:12:55;8.60;;;6.70;;
64210;SDS011;50528;48.514;14.394;2023-04-03T03:13:28;10.60;;;7.00;;
64210;SDS011;50528;48.514;14.394;2023-04-03T03:14:02;8.70;;;6.80;;
64210;SDS011;50528;48.514;14.394;2023-04-03T03:14:36;8.70;;;6.90;;
64210;SDS011;50528;48.514;14.394;2023-04-03T03:15:09;8.20;;;6.90;;
64210;SDS011;50528;48.514;14.394;2023-04-03T03:15:43;8.20;;;7.00;;
64210;SDS011;50528;48.514;14.394;2023-04-03T03:16:17;8.10;;;6.90;;
64210;SDS011;50528;48.514;14.394;2023-04-03T03:16:50;9.70;;;7.10;;
64210;SDS011;50528;48.514;14.394;2023-04-03T03:17:24;9.90;;;7.20;;
64210;SDS011;50528;48.514;14.394;2023-04-03T03:17:58;8.30;;;6.80;;
64210;SDS011;50528;48.514;14.394;2023-04-03T03:18:31;8.60;;;6.90;;
64210;SDS011;50528;48.514;14.394;2023-04-03T03:19:06;8.90;;;6.80;;
64210;SDS011;50528;48.514;14.394;2023-04-03T03:19:39;8.20;;;6.80;;
64210;SDS011;50528;48.514;14.394;2023-04-03T03:20:13;9.40;;;7.00;;
64210;SDS011;50528;48.514;14.394;2023-04-03T03:20:53;9.00;;;7.20;;
64210;SDS011;50528;48.514;14.394;2023-04-03T03:21:28;8.30;;;6.70;;
64210;SDS011;50528;48.514;14.394;2023-04-03T03:22:01;9.10;;;7.10;;
64210;SDS011;50528;48.514;14.394;2023-04-03T03:22:35;8.40;;;7.20;;
64210;SDS011;50528;48.514;14.394;2023-04-03T03:23:09;8.80;;;6.80;;
64210;SDS011;50528;48.514;14.394;2023-04-03T03:23:43;8.10;;;7.20;;
64210;SDS011;50528;48.514;14.394;2023-04-03T03:24:16;9.10;;;7.00;;
64210;SDS011;50528;48.514;14.394;2023-04-03T03:24:50;9.30;;;7.40;;
64210;SDS011;50528;48.514;14.394;2023-04-03T03:25:23;8.60;;;7.00;;
64210;SDS011;50528;48.514;14.394;2023-04-03T03:25:58;11.70;;;7.00;;
64210;SDS011;50528;48.514;14.394;2023-04-03T03:26:34;9.30;;;7.00;;
64210;SDS011;50528;48.514;14.394;2023-04-03T03:27:09;8.50;;;6.90;;
64210;SDS011;50528;48.514;14.394;2023-04-03T03:27:43;10.00;;;6.90;;
64210;SDS011;50528;48.514;14.394;2023-04-03T03:28:17;9.10;;;6.90;;
64210;SDS011;50528;48.514;14.394;2023-04-03T03:28:50;7.60;;;6.30;;
64210;SDS011;50528;48.514;14.394;2023-04-03T03:29:24;9.90;;;7.30;;
64210;SDS011;50528;48.514;14.394;2023-04-03T03:29:58;9.60;;;7.10;;
64210;SDS011;50528;48.514;14.394;2023-04-03T03:30:31;8.60;;;6.50;;
64210;SDS011;50528;48.514;14.394;2023-04-03T03:31:06;9.20;;;6.60;;
64210;SDS011;50528;48.514;14.394;2023-04-03T03:31:44;8.20;;;7.10;;
64210;SDS011;50528;48.514;14.394;2023-04-03T03:32:18;9.20;;;7.30;;
64210;SDS011;50528;48.514;14.394;2023-04-03T03:32:51;8.80;;;7.00;;
64210;SDS011;50528;48.514;14.394;2023-04-03T03:33:25;8.70;;;7.30;;
64210;SDS011;50528;48.514;14.394;2023-04-03T03:33:59;8.10;;;6.70;;